createdAt,value
2022-12-11T00:00:01.439Z,10.00
2022-12-11T00:00:30.927Z,8.90
2022-12-11T00:04:07.988Z,9.90
2022-12-11T00:04:35.598Z,8.80
2022-12-11T00:08:12.796Z,10.00
2022-12-11T00:08:40.256Z,8.80
2022-12-11T00:12:16.610Z,10.00
2022-12-11T00:12:44.326Z,8.60
2022-12-11T00:16:26.558Z,10.00
2022-12-11T00:16:49.983Z,8.60
2022-12-11T00:20:39.727Z,10.00
2022-12-11T00:20:54.166Z,8.60
2022-12-11T00:24:43.884Z,10.00
2022-12-11T00:24:57.957Z,8.70
2022-12-11T00:28:52.509Z,10.00
2022-12-11T00:29:01.588Z,8.70
2022-12-11T00:32:56.715Z,10.00
2022-12-11T00:37:00.470Z,10.00
2022-12-11T00:41:04.124Z,10.00
2022-12-11T00:45:10.449Z,10.10
2022-12-11T00:49:14.186Z,10.10
2022-12-11T00:53:17.697Z,10.10
2022-12-11T00:57:24.195Z,10.10
2022-12-11T01:01:28.547Z,10.10
2022-12-11T01:05:32.264Z,10.00
2022-12-11T01:09:54.366Z,10.00
2022-12-11T01:13:57.744Z,10.00
2022-12-11T01:18:01.825Z,10.00
2022-12-11T01:22:05.499Z,10.00
2022-12-11T01:26:12.494Z,10.00
2022-12-11T01:30:16.438Z,10.00
2022-12-11T01:34:20.476Z,10.00
2022-12-11T01:38:24.358Z,10.00
2022-12-11T01:42:41.400Z,10.00
2022-12-11T01:46:49.201Z,9.90
2022-12-11T01:50:58.550Z,9.90
2022-12-11T01:55:02.545Z,9.80
2022-12-11T01:59:08.406Z,9.70
2022-12-11T02:03:12.495Z,9.70
2022-12-11T02:07:16.449Z,9.70
2022-12-11T02:11:22.928Z,9.50
2022-12-11T02:15:31.821Z,9.50
2022-12-11T02:19:58.416Z,9.40
2022-12-11T02:24:14.343Z,9.30
2022-12-11T02:28:32.267Z,9.20
2022-12-11T02:32:48.181Z,9.10
2022-12-11T02:36:58.161Z,9.10
2022-12-11T02:41:03.160Z,9.10
2022-12-11T02:45:09.612Z,9.10
2022-12-11T02:49:14.218Z,9.10
2022-12-11T02:53:22.441Z,9.20
2022-12-11T02:57:59.596Z,9.10
2022-12-11T03:02:04.829Z,9.20
2022-12-11T03:06:13.625Z,9.20
2022-12-11T03:10:19.553Z,9.20
2022-12-11T03:14:24.461Z,9.20
2022-12-11T03:18:33.742Z,9.20
2022-12-11T03:22:42.816Z,9.20
2022-12-11T03:26:57.231Z,9.20
2022-12-11T03:31:11.069Z,9.10
2022-12-11T03:35:25.414Z,9.00
2022-12-11T03:39:36.585Z,9.00
2022-12-11T03:43:42.728Z,8.90
2022-12-11T03:47:50.365Z,8.90
2022-12-11T03:51:56.978Z,8.80
2022-12-11T03:56:02.440Z,8.70
2022-12-11T04:00:09.483Z,8.70
2022-12-11T04:04:19.008Z,8.70
2022-12-11T04:08:23.978Z,8.70
2022-12-11T04:12:27.659Z,8.70
2022-12-11T04:16:30.966Z,8.70
2022-12-11T04:20:52.765Z,8.70
2022-12-11T04:24:56.391Z,8.60
2022-12-11T04:28:59.705Z,8.50
2022-12-11T04:33:03.134Z,8.40
2022-12-11T04:37:06.879Z,8.30
2022-12-11T04:41:13.548Z,8.30
2022-12-11T04:45:17.413Z,8.20
2022-12-11T04:49:20.905Z,8.10
2022-12-11T04:53:24.865Z,8.00
2022-12-11T04:57:28.325Z,8.00
2022-12-11T05:01:31.880Z,7.90
2022-12-11T05:05:35.402Z,7.90
2022-12-11T05:09:38.781Z,7.90
2022-12-11T05:13:43.209Z,7.80
2022-12-11T05:17:46.553Z,7.80
2022-12-11T05:21:50.199Z,7.70
2022-12-11T05:25:59.972Z,7.60
2022-12-11T05:30:04.343Z,7.60
2022-12-11T05:31:51.874Z,6.80
2022-12-11T05:34:07.762Z,7.60
2022-12-11T05:35:56.213Z,6.80
2022-12-11T05:38:11.138Z,7.50
2022-12-11T05:40:00.049Z,6.60
2022-12-11T05:42:14.451Z,7.50
2022-12-11T05:44:04.604Z,6.60
2022-12-11T05:46:20.329Z,7.50
2022-12-11T05:48:08.965Z,6.60
2022-12-11T05:50:23.785Z,7.40
2022-12-11T05:52:12.803Z,6.70
2022-12-11T05:54:27.204Z,7.40
2022-12-11T05:56:19.264Z,6.70
2022-12-11T05:58:33.992Z,7.30
2022-12-11T06:00:22.952Z,6.60
2022-12-11T06:02:37.394Z,7.30
2022-12-11T06:04:27.284Z,6.70
2022-12-11T06:06:41.331Z,7.30
2022-12-11T06:08:32.283Z,6.70
2022-12-11T06:10:51.670Z,7.30
2022-12-11T06:12:36.704Z,6.90
2022-12-11T06:14:55.596Z,7.30
2022-12-11T06:16:40.551Z,7.00
2022-12-11T06:18:59.937Z,7.40
2022-12-11T06:20:44.530Z,7.10
2022-12-11T06:23:04.476Z,7.40
2022-12-11T06:24:48.405Z,7.20
2022-12-11T06:27:10.580Z,7.50
2022-12-11T06:28:52.354Z,7.40
2022-12-11T06:31:15.673Z,7.60
2022-12-11T06:32:56.214Z,7.50
2022-12-11T06:35:22.631Z,7.60
2022-12-11T06:37:02.636Z,7.50
2022-12-11T06:39:26.018Z,7.60
2022-12-11T06:41:08.136Z,7.40
2022-12-11T06:43:29.474Z,7.60
2022-12-11T06:45:12.320Z,7.40
2022-12-11T06:47:36.340Z,7.50
2022-12-11T06:49:16.607Z,7.30
2022-12-11T06:51:40.720Z,7.40
2022-12-11T06:53:20.773Z,7.20
2022-12-11T06:55:45.164Z,7.30
2022-12-11T06:57:25.203Z,7.10
2022-12-11T06:59:50.377Z,7.20
2022-12-11T07:01:29.773Z,7.10
2022-12-11T07:03:56.438Z,7.20
2022-12-11T07:05:35.561Z,7.10
2022-12-11T07:08:00.835Z,7.20
2022-12-11T07:09:41.404Z,7.00
2022-12-11T07:12:05.006Z,7.20
2022-12-11T07:13:45.693Z,7.00
2022-12-11T07:16:12.855Z,7.20
2022-12-11T07:17:49.725Z,7.00
2022-12-11T07:20:19.899Z,7.20
2022-12-11T07:21:53.723Z,7.20
2022-12-11T07:24:24.184Z,7.10
2022-12-11T07:25:58.283Z,7.40
2022-12-11T07:28:27.746Z,7.10
2022-12-11T07:30:02.154Z,7.50
2022-12-11T07:32:31.423Z,7.00
2022-12-11T07:34:07.563Z,7.50
2022-12-11T07:36:35.169Z,7.00
2022-12-11T07:38:12.112Z,7.50
2022-12-11T07:40:39.224Z,7.00
2022-12-11T07:42:15.916Z,7.40
2022-12-11T07:44:44.165Z,7.10
2022-12-11T07:46:24.444Z,7.50
2022-12-11T07:48:48.697Z,7.20
2022-12-11T07:50:28.531Z,7.80
2022-12-11T07:52:52.730Z,7.60
2022-12-11T07:54:32.523Z,8.10
2022-12-11T07:56:56.347Z,8.40
2022-12-11T07:58:37.424Z,8.20
2022-12-11T08:00:59.992Z,9.20
2022-12-11T08:02:41.306Z,8.30
2022-12-11T08:05:03.504Z,9.60
2022-12-11T08:06:45.263Z,8.40
2022-12-11T08:09:09.801Z,10.00
2022-12-11T08:10:49.664Z,8.30
2022-12-11T08:13:13.140Z,10.50
2022-12-11T08:14:53.654Z,8.50
2022-12-11T08:17:17.294Z,10.50
2022-12-11T08:18:58.347Z,8.70
2022-12-11T08:21:23.807Z,10.80
2022-12-11T08:23:02.192Z,8.90
2022-12-11T08:25:28.931Z,11.70
2022-12-11T08:27:06.052Z,9.10
2022-12-11T08:29:32.479Z,12.50
2022-12-11T08:31:11.772Z,9.20
2022-12-11T08:33:37.053Z,12.70
2022-12-11T08:35:15.893Z,9.20
2022-12-11T08:37:40.474Z,13.10
2022-12-11T08:39:20.635Z,9.40
2022-12-11T08:41:44.134Z,13.70
2022-12-11T08:43:26.204Z,9.70
2022-12-11T08:45:49.838Z,14.20
2022-12-11T08:47:30.115Z,10.10
2022-12-11T08:49:55.591Z,14.50
2022-12-11T08:51:35.315Z,10.60
2022-12-11T08:54:01.623Z,14.70
2022-12-11T08:55:39.294Z,10.80
2022-12-11T08:58:06.174Z,14.80
2022-12-11T08:59:46.341Z,10.80
2022-12-11T09:02:13.554Z,14.90
2022-12-11T09:03:51.483Z,10.50
2022-12-11T09:06:21.457Z,15.00
2022-12-11T09:07:58.707Z,10.30
2022-12-11T09:10:25.596Z,15.00
2022-12-11T09:12:05.097Z,10.00
2022-12-11T09:14:29.835Z,15.20
2022-12-11T09:16:12.743Z,10.00
2022-12-11T09:18:33.555Z,15.60
2022-12-11T09:20:17.335Z,10.10
2022-12-11T09:22:36.864Z,15.80
2022-12-11T09:24:22.032Z,10.00
2022-12-11T09:26:40.739Z,15.70
2022-12-11T09:28:26.856Z,10.10
2022-12-11T09:30:47.283Z,15.60
2022-12-11T09:32:31.644Z,10.20
2022-12-11T09:34:51.168Z,15.70
2022-12-11T09:36:40.764Z,10.40
2022-12-11T09:39:02.195Z,16.00
2022-12-11T09:40:44.862Z,10.70
2022-12-11T09:43:35.454Z,16.20
2022-12-11T09:44:52.790Z,10.90
2022-12-11T09:47:44.283Z,16.60
2022-12-11T09:48:56.843Z,10.50
2022-12-11T09:51:54.535Z,16.90
2022-12-11T09:53:37.230Z,10.00
2022-12-11T09:56:27.022Z,16.90
2022-12-11T09:57:53.171Z,9.40
2022-12-11T10:00:49.520Z,17.10
2022-12-11T10:02:26.078Z,8.90
2022-12-11T10:04:59.299Z,17.60
2022-12-11T10:06:48.503Z,8.60
2022-12-11T10:09:18.359Z,18.00
2022-12-11T10:11:01.966Z,8.40
2022-12-11T10:13:29.364Z,18.00
2022-12-11T10:15:40.793Z,8.20
2022-12-11T10:17:34.581Z,16.60
2022-12-11T10:19:45.434Z,8.10
2022-12-11T10:21:42.123Z,15.20
2022-12-11T10:23:59.482Z,8.10
2022-12-11T10:26:05.012Z,14.20
2022-12-11T10:28:20.983Z,8.10
2022-12-11T10:30:25.383Z,13.10
2022-12-11T10:32:29.943Z,8.00
2022-12-11T10:34:40.400Z,12.40
2022-12-11T10:36:39.884Z,8.10
2022-12-11T10:38:47.052Z,11.70
2022-12-11T10:40:52.946Z,8.20
2022-12-11T10:42:56.775Z,11.20
2022-12-11T10:45:06.284Z,8.40
2022-12-11T10:47:12.450Z,11.10
2022-12-11T10:49:26.354Z,8.60
2022-12-11T10:51:16.263Z,12.10
2022-12-11T10:53:32.444Z,8.80
2022-12-11T10:55:30.023Z,13.20
2022-12-11T10:57:39.832Z,9.20
2022-12-11T10:59:49.519Z,13.80
2022-12-11T11:01:48.015Z,9.40
2022-12-11T11:04:19.845Z,15.00
2022-12-11T11:06:17.614Z,9.30
2022-12-11T11:08:23.889Z,16.20
2022-12-11T11:10:22.286Z,9.10
2022-12-11T11:12:28.314Z,16.20
2022-12-11T11:14:26.255Z,8.90
2022-12-11T11:16:38.437Z,15.20
2022-12-11T11:18:31.242Z,8.80
2022-12-11T11:20:48.983Z,14.20
2022-12-11T11:22:47.954Z,8.70
2022-12-11T11:24:57.191Z,13.20
2022-12-11T11:29:01.345Z,12.60
2022-12-11T11:31:18.298Z,8.40
2022-12-11T11:33:19.489Z,12.00
2022-12-11T11:35:26.584Z,8.40
2022-12-11T11:37:27.967Z,11.60
2022-12-11T11:39:41.236Z,8.30
2022-12-11T11:41:45.001Z,11.40
2022-12-11T11:43:50.625Z,7.90
2022-12-11T11:46:02.118Z,11.10
2022-12-11T11:48:16.004Z,7.70
2022-12-11T11:50:13.604Z,10.80
2022-12-11T11:52:38.274Z,7.50
2022-12-11T11:54:36.902Z,10.60
2022-12-11T11:56:42.784Z,7.70
2022-12-11T11:58:50.764Z,10.30
2022-12-11T12:00:47.549Z,7.60
2022-12-11T12:03:02.569Z,10.20
2022-12-11T12:04:52.360Z,7.50
2022-12-11T12:07:33.631Z,10.20
2022-12-11T12:08:56.282Z,7.70
2022-12-11T12:11:46.824Z,10.10
2022-12-11T12:15:57.060Z,10.00
2022-12-11T12:18:04.574Z,8.20
2022-12-11T12:20:06.645Z,9.90
2022-12-11T12:22:42.225Z,8.20
2022-12-11T12:24:27.524Z,10.00
2022-12-11T12:26:54.741Z,8.20
2022-12-11T12:28:39.790Z,9.90
2022-12-11T12:31:11.253Z,8.30
2022-12-11T12:33:14.202Z,9.80
2022-12-11T12:35:32.514Z,8.30
2022-12-11T12:37:38.055Z,9.70
2022-12-11T12:39:46.453Z,8.40
2022-12-11T12:42:01.332Z,9.70
2022-12-11T12:44:18.044Z,8.20
2022-12-11T12:46:23.256Z,9.70
2022-12-11T12:48:25.424Z,7.90
2022-12-11T12:50:36.589Z,9.60
2022-12-11T12:52:34.817Z,7.90
2022-12-11T12:54:42.478Z,9.60
2022-12-11T12:56:41.026Z,7.60
2022-12-11T12:58:46.604Z,9.60
2022-12-11T13:00:45.219Z,7.50
2022-12-11T13:02:51.236Z,9.50
2022-12-11T13:05:03.840Z,7.20
2022-12-11T13:06:55.155Z,9.50
2022-12-11T13:09:18.586Z,7.10
2022-12-11T13:11:09.094Z,9.30
2022-12-11T13:13:41.835Z,7.10
2022-12-11T13:15:36.301Z,9.30
2022-12-11T13:17:45.714Z,7.10
2022-12-11T13:19:42.796Z,9.20
2022-12-11T13:22:06.703Z,7.20
2022-12-11T13:23:46.572Z,9.20
2022-12-11T13:26:10.744Z,7.20
2022-12-11T13:27:50.378Z,9.20
2022-12-11T13:30:23.564Z,7.10
2022-12-11T13:31:59.779Z,9.20
2022-12-11T13:34:37.573Z,7.10
2022-12-11T13:36:40.350Z,9.10
2022-12-11T13:38:49.627Z,7.00
2022-12-11T13:40:53.968Z,9.10
2022-12-11T13:43:21.323Z,6.90
2022-12-11T13:44:57.663Z,8.90
2022-12-11T13:47:27.016Z,6.80
2022-12-11T13:49:05.139Z,8.80
2022-12-11T13:51:35.482Z,6.70
2022-12-11T13:53:16.185Z,8.70
2022-12-11T13:55:41.252Z,6.50
2022-12-11T13:57:22.909Z,8.50
2022-12-11T13:59:53.484Z,6.30
2022-12-11T14:01:30.568Z,8.30
2022-12-11T14:04:08.434Z,6.10
2022-12-11T14:05:35.429Z,8.00
2022-12-11T14:08:20.935Z,6.10
2022-12-11T14:09:44.565Z,7.80
2022-12-11T14:12:27.815Z,6.00
2022-12-11T14:13:48.982Z,7.70
2022-12-11T14:16:33.345Z,6.00
2022-12-11T14:17:53.147Z,7.60
2022-12-11T14:20:37.805Z,6.00
2022-12-11T14:22:08.204Z,7.40
2022-12-11T14:24:54.437Z,5.90
2022-12-11T14:26:35.860Z,7.30
2022-12-11T14:29:04.123Z,6.00
2022-12-11T14:30:45.391Z,7.20
2022-12-11T14:33:08.578Z,6.10
2022-12-11T14:34:53.196Z,7.20
2022-12-11T14:37:16.642Z,6.30
2022-12-11T14:39:18.611Z,7.10
2022-12-11T14:41:28.202Z,6.30
2022-12-11T14:43:26.117Z,7.00
2022-12-11T14:45:41.132Z,6.30
2022-12-11T14:47:34.999Z,7.00
2022-12-11T14:50:00.293Z,6.20
2022-12-11T14:51:41.349Z,7.10
2022-12-11T14:54:08.674Z,5.90
2022-12-11T14:55:48.884Z,7.00
2022-12-11T14:58:26.344Z,5.70
2022-12-11T14:59:53.863Z,7.00
2022-12-11T15:02:34.657Z,5.50
2022-12-11T15:04:08.156Z,7.00
2022-12-11T15:06:46.265Z,5.50
2022-12-11T15:08:12.101Z,7.00
2022-12-11T15:11:01.695Z,5.40
2022-12-11T15:12:18.963Z,6.90
2022-12-11T15:15:07.885Z,5.30
2022-12-11T15:16:25.403Z,6.80
2022-12-11T15:19:33.915Z,5.10
2022-12-11T15:20:31.014Z,6.70
2022-12-11T15:23:52.986Z,4.90
2022-12-11T15:24:40.841Z,6.70
2022-12-11T15:28:00.770Z,4.70
2022-12-11T15:28:44.755Z,6.60
2022-12-11T15:32:09.989Z,4.70
2022-12-11T15:32:48.308Z,6.50
2022-12-11T15:36:48.193Z,4.80
2022-12-11T15:36:51.670Z,6.40
2022-12-11T15:40:53.385Z,4.90
2022-12-11T15:40:55.036Z,6.30
2022-12-11T15:44:57.666Z,4.90
2022-12-11T15:44:59.741Z,6.20
2022-12-11T15:49:11.743Z,6.00
2022-12-11T15:49:13.258Z,4.70
2022-12-11T15:53:15.032Z,5.90
2022-12-11T15:53:18.187Z,4.50
2022-12-11T15:57:23.284Z,5.80
2022-12-11T15:57:26.989Z,4.50
2022-12-11T16:01:26.836Z,5.80
2022-12-11T16:01:32.357Z,4.60
2022-12-11T16:05:30.175Z,5.70
2022-12-11T16:05:37.724Z,4.70
2022-12-11T16:09:34.854Z,5.60
2022-12-11T16:09:44.133Z,4.80
2022-12-11T16:13:39.312Z,5.50
2022-12-11T16:13:48.253Z,4.90
2022-12-11T16:17:42.946Z,5.50
2022-12-11T16:18:07.016Z,5.00
2022-12-11T16:21:46.975Z,5.40
2022-12-11T16:22:13.244Z,5.00
2022-12-11T16:25:50.699Z,5.50
2022-12-11T16:26:17.256Z,5.00
2022-12-11T16:29:54.060Z,5.50
2022-12-11T16:30:23.475Z,5.10
2022-12-11T16:33:57.651Z,5.50
2022-12-11T16:34:30.184Z,5.20
2022-12-11T16:38:00.943Z,5.60
2022-12-11T16:38:36.598Z,5.20
2022-12-11T16:42:05.727Z,5.60
2022-12-11T16:42:42.302Z,5.30
2022-12-11T16:46:09.093Z,5.60
2022-12-11T16:46:48.877Z,5.20
2022-12-11T16:50:15.458Z,5.60
2022-12-11T16:50:58.135Z,5.20
2022-12-11T16:54:19.273Z,5.50
2022-12-11T16:55:03.313Z,5.20
2022-12-11T16:58:22.595Z,5.60
2022-12-11T16:59:13.207Z,5.20
2022-12-11T17:02:26.075Z,5.60
2022-12-11T17:03:20.167Z,5.10
2022-12-11T17:06:29.610Z,5.50
2022-12-11T17:07:25.113Z,5.10
2022-12-11T17:10:34.625Z,5.50
2022-12-11T17:11:31.374Z,5.10
2022-12-11T17:14:38.200Z,5.60
2022-12-11T17:15:41.761Z,5.00
2022-12-11T17:18:42.746Z,5.70
2022-12-11T17:19:50.979Z,5.00
2022-12-11T17:22:46.282Z,5.70
2022-12-11T17:23:56.306Z,5.00
2022-12-11T17:26:49.585Z,5.70
2022-12-11T17:28:00.436Z,4.90
2022-12-11T17:30:53.368Z,5.80
2022-12-11T17:32:04.716Z,4.90
2022-12-11T17:34:58.186Z,5.80
2022-12-11T17:36:13.544Z,4.90
2022-12-11T17:39:01.822Z,5.90
2022-12-11T17:40:19.344Z,4.90
2022-12-11T17:43:09.424Z,5.90
2022-12-11T17:44:27.463Z,4.90
2022-12-11T17:47:12.826Z,5.90
2022-12-11T17:48:35.164Z,4.90
2022-12-11T17:51:24.721Z,6.00
2022-12-11T17:52:44.201Z,4.90
2022-12-11T17:55:28.404Z,6.00
2022-12-11T17:56:48.731Z,4.80
2022-12-11T17:59:32.532Z,6.00
2022-12-11T18:00:56.809Z,4.80
2022-12-11T18:03:38.387Z,6.00
2022-12-11T18:05:02.405Z,4.80
2022-12-11T18:07:42.106Z,5.90
2022-12-11T18:09:06.920Z,4.70
2022-12-11T18:11:46.105Z,5.90
2022-12-11T18:13:13.704Z,4.70
2022-12-11T18:16:01.250Z,5.90
2022-12-11T18:17:18.713Z,4.60
2022-12-11T18:20:05.514Z,5.80
2022-12-11T18:21:32.761Z,4.60
2022-12-11T18:24:10.381Z,5.80
2022-12-11T18:25:38.965Z,4.70
2022-12-11T18:28:15.579Z,5.80
2022-12-11T18:29:45.347Z,4.60
2022-12-11T18:32:20.088Z,5.70
2022-12-11T18:33:51.365Z,4.50
2022-12-11T18:36:23.899Z,5.70
2022-12-11T18:37:55.677Z,4.30
2022-12-11T18:40:29.891Z,5.40
2022-12-11T18:42:31.115Z,4.20
2022-12-11T18:44:36.517Z,5.40
2022-12-11T18:46:25.517Z,4.00
2022-12-11T18:48:41.322Z,5.30
2022-12-11T18:52:45.739Z,5.20
2022-12-11T18:56:49.492Z,5.30
2022-12-11T18:57:04.366Z,3.90
2022-12-11T19:00:53.594Z,5.20
2022-12-11T19:01:41.037Z,3.70
2022-12-11T19:04:57.094Z,5.20
2022-12-11T19:06:21.368Z,3.50
2022-12-11T19:09:01.063Z,5.10
2022-12-11T19:11:11.065Z,3.40
2022-12-11T19:13:04.355Z,5.10
2022-12-11T19:15:40.306Z,3.30
2022-12-11T19:17:07.855Z,5.00
2022-12-11T19:19:46.866Z,3.10
2022-12-11T19:21:15.805Z,5.00
2022-12-11T19:23:58.444Z,2.90
2022-12-11T19:25:19.167Z,4.90
2022-12-11T19:28:05.027Z,2.70
2022-12-11T19:29:28.309Z,4.80
2022-12-11T19:32:10.543Z,2.50
2022-12-11T19:33:32.382Z,4.80
2022-12-11T19:36:43.316Z,2.40
2022-12-11T19:37:35.915Z,4.70
2022-12-11T19:40:56.487Z,2.30
2022-12-11T19:41:41.555Z,4.60
2022-12-11T19:45:04.649Z,2.20
2022-12-11T19:45:46.099Z,4.50
2022-12-11T19:49:49.652Z,4.40
2022-12-11T19:53:54.167Z,4.30
2022-12-11T19:54:05.360Z,2.20
2022-12-11T19:57:57.494Z,4.30
2022-12-11T19:58:17.627Z,2.00
2022-12-11T20:02:00.923Z,4.20
2022-12-11T20:02:24.778Z,1.90
2022-12-11T20:06:08.566Z,4.20
2022-12-11T20:06:36.730Z,1.80
2022-12-11T20:10:12.075Z,4.10
2022-12-11T20:10:43.826Z,1.80
2022-12-11T20:14:24.587Z,4.00
2022-12-11T20:14:49.828Z,1.70
2022-12-11T20:18:28.043Z,3.90
2022-12-11T20:18:56.745Z,1.70
2022-12-11T20:22:31.817Z,3.90
2022-12-11T20:23:03.798Z,1.50
2022-12-11T20:26:37.115Z,3.80
2022-12-11T20:27:10.583Z,1.60
2022-12-11T20:30:40.433Z,3.80
2022-12-11T20:31:20.224Z,1.70
2022-12-11T20:34:45.227Z,3.70
2022-12-11T20:35:28.031Z,2.00
2022-12-11T20:38:48.849Z,3.60
2022-12-11T20:39:33.545Z,2.10
2022-12-11T20:42:53.226Z,3.60
2022-12-11T20:43:39.316Z,2.00
2022-12-11T20:46:56.515Z,3.50
2022-12-11T20:47:43.654Z,1.80
2022-12-11T20:51:06.072Z,3.50
2022-12-11T20:51:53.078Z,1.70
2022-12-11T20:55:11.425Z,3.30
2022-12-11T20:55:57.952Z,1.50
2022-12-11T20:59:15.352Z,3.20
2022-12-11T21:00:06.328Z,1.40
2022-12-11T21:03:18.796Z,3.00
2022-12-11T21:04:21.456Z,1.30
2022-12-11T21:07:22.389Z,2.90
2022-12-11T21:08:29.767Z,1.40
2022-12-11T21:11:25.996Z,2.80
2022-12-11T21:12:34.658Z,1.40
2022-12-11T21:15:29.360Z,2.70
2022-12-11T21:16:42.921Z,1.40
2022-12-11T21:19:33.031Z,2.70
2022-12-11T21:20:47.199Z,1.50
2022-12-11T21:23:36.953Z,2.60
2022-12-11T21:24:54.473Z,1.40
2022-12-11T21:27:40.341Z,2.70
2022-12-11T21:29:00.324Z,1.30
2022-12-11T21:31:43.765Z,2.60
2022-12-11T21:33:08.594Z,1.40
2022-12-11T21:35:54.956Z,2.60
2022-12-11T21:37:13.211Z,1.30
2022-12-11T21:39:58.855Z,2.50
2022-12-11T21:41:22.967Z,1.20
2022-12-11T21:46:00.345Z,1.00
2022-12-11T21:48:25.739Z,2.30
2022-12-11T21:50:00.736Z,0.90
2022-12-11T21:52:30.329Z,2.30
2022-12-11T21:54:07.077Z,0.80
2022-12-11T21:56:34.481Z,2.30
2022-12-11T21:58:11.676Z,0.80
2022-12-11T22:00:39.735Z,2.20
2022-12-11T22:02:16.006Z,0.70
2022-12-11T22:04:43.362Z,2.20
2022-12-11T22:06:21.580Z,0.50
2022-12-11T22:08:49.453Z,2.20
2022-12-11T22:10:25.709Z,0.40
2022-12-11T22:12:52.821Z,2.20
2022-12-11T22:14:31.797Z,0.50
2022-12-11T22:16:56.316Z,2.20
2022-12-11T22:18:36.685Z,0.50
2022-12-11T22:21:00.361Z,2.10
2022-12-11T22:22:40.929Z,0.40
2022-12-11T22:25:07.677Z,2.10
2022-12-11T22:26:45.864Z,0.40
2022-12-11T22:29:11.097Z,2.10
2022-12-11T22:30:50.661Z,0.60
2022-12-11T22:33:15.086Z,2.10
2022-12-11T22:34:56.707Z,0.90
2022-12-11T22:37:20.209Z,2.00
2022-12-11T22:39:01.808Z,1.30
2022-12-11T22:41:29.719Z,2.00
2022-12-11T22:43:12.233Z,1.60
2022-12-11T22:45:33.711Z,1.80
2022-12-11T22:47:19.816Z,1.80
2022-12-11T22:49:37.179Z,1.80
2022-12-11T22:51:27.745Z,1.90
2022-12-11T22:53:40.606Z,1.70
2022-12-11T22:55:32.217Z,2.00
2022-12-11T22:57:43.878Z,1.50
2022-12-11T22:59:37.247Z,2.00
2022-12-11T23:01:47.234Z,1.50
2022-12-11T23:03:41.394Z,1.90
2022-12-11T23:05:50.580Z,1.40
2022-12-11T23:07:45.968Z,1.80
2022-12-11T23:09:53.887Z,1.30
2022-12-11T23:11:53.588Z,1.70
2022-12-11T23:13:58.027Z,1.30
2022-12-11T23:15:57.648Z,1.60
2022-12-11T23:18:02.488Z,1.30
2022-12-11T23:20:04.051Z,1.70
2022-12-11T23:22:05.890Z,1.20
2022-12-11T23:24:08.546Z,1.80
2022-12-11T23:26:12.193Z,1.20
2022-12-11T23:28:12.778Z,1.80
2022-12-11T23:30:15.772Z,1.30
2022-12-11T23:32:17.860Z,1.90
2022-12-11T23:34:19.266Z,1.20
2022-12-11T23:36:22.380Z,1.90
2022-12-11T23:38:23.397Z,1.30
2022-12-11T23:40:26.690Z,1.70
2022-12-11T23:42:26.705Z,1.20
2022-12-11T23:44:30.865Z,1.40
2022-12-11T23:46:31.739Z,1.20
2022-12-11T23:48:35.408Z,1.10
2022-12-11T23:50:38.350Z,1.20
2022-12-11T23:52:39.677Z,0.80
2022-12-11T23:54:41.882Z,1.20
2022-12-11T23:56:43.675Z,0.60
2022-12-11T23:58:45.919Z,1.20
